M/V Tuna — XUGC9 — position and weather

sailwx.info

Track history (hours):
 
Tides and Currents Weather Stations Pressure Air Temp Water Temp Dewpoint Dewpoint Depression Visibility Wind Speed Wind Dir Waves Ship Positions

M/V Tuna

Last reported at 2016-Aug-25 04:30 UTC. Time now 2016-Aug-25 14:58 UTC.
Position N 40°45' E 029°28'.

Length 114 m; draft 3.6 m.

Type: Cargo ship. MMSI: 514778000.

Date/timePositionNaut miles runAvg speedWind from/ knotsBaromVisibWave heightAir tempDewpointWater temp
2016-Aug-25 04:30N 40°45' E 029°28'5 5.7
2016-Aug-25 03:34N 40°43' E 029°21'3 2.6
2016-Aug-25 02:34N 40°44' E 029°18'6 6.3
2016-Aug-25 01:32N 40°46' E 029°10'6 6.1
2016-Aug-25 00:32N 40°49' E 029°03'7 5.7
2016-Aug-24 23:24N 40°53' E 028°56'5 5.9
2016-Aug-24 22:29N 40°58' E 028°58'  
2016-Aug-21 17:17N 46°18' E 030°54'5 6.2
2016-Aug-21 16:31N 46°23' E 030°55'6 6.2
2016-Aug-21 15:33N 46°28' E 030°55'  
Track history (hours):
 
Tides and Currents Weather Stations Pressure Air Temp Water Temp Dewpoint Dewpoint Depression Visibility Wind Speed Wind Dir Waves Ship Positions

M/V Tuna

Last reported at 2016-Aug-25 04:30 UTC. Time now 2016-Aug-25 14:58 UTC.
Position N 40°45' E 029°28'.

Length 114 m; draft 3.6 m.

Type: Cargo ship. MMSI: 514778000.

Date/timePositionNaut miles runAvg speedWind from/ knotsBaromVisibWave heightAir tempDewpointWater temp
2016-Aug-25 04:30N 40°45' E 029°28'5 5.7
2016-Aug-25 03:34N 40°43' E 029°21'3 2.6
2016-Aug-25 02:34N 40°44' E 029°18'6 6.3
2016-Aug-25 01:32N 40°46' E 029°10'6 6.1
2016-Aug-25 00:32N 40°49' E 029°03'7 5.7
2016-Aug-24 23:24N 40°53' E 028°56'5 5.9
2016-Aug-24 22:29N 40°58' E 028°58'  
2016-Aug-21 17:17N 46°18' E 030°54'5 6.2
2016-Aug-21 16:31N 46°23' E 030°55'6 6.2
2016-Aug-21 15:33N 46°28' E 030°55'  

Dump ship's entire track history